sensor_id;sensor_type;location;lat;lon;timestamp;pressure;altitude;pressure_sealevel;temperature;humidity
20620;BME280;10469;42.720;23.252;2023-01-25T00:02:13;95991.16;;;1.10;100.00
20620;BME280;10469;42.720;23.252;2023-01-25T00:04:39;96008.97;;;1.26;100.00
20620;BME280;10469;42.720;23.252;2023-01-25T00:07:04;96008.97;;;1.26;100.00
20620;BME280;10469;42.720;23.252;2023-01-25T00:09:30;96013.34;;;1.17;100.00
20620;BME280;10469;42.720;23.252;2023-01-25T00:11:55;96010.47;;;1.11;100.00
20620;BME280;10469;42.720;23.252;2023-01-25T00:14:22;96004.00;;;1.05;100.00
20620;BME280;10469;42.720;23.252;2023-01-25T00:16:48;96011.75;;;1.07;100.00
20620;BME280;10469;42.720;23.252;2023-01-25T00:19:13;96001.94;;;0.99;100.00
20620;BME280;10469;42.720;23.252;2023-01-25T00:21:39;96007.00;;;0.92;100.00
20620;BME280;10469;42.720;23.252;2023-01-25T00:24:05;96002.06;;;0.80;100.00
20620;BME280;10469;42.720;23.252;2023-01-25T00:26:33;96006.81;;;0.76;100.00
20620;BME280;10469;42.720;23.252;2023-01-25T00:28:59;95991.50;;;0.80;100.00
20620;BME280;10469;42.720;23.252;2023-01-25T00:39:41;96005.47;;;0.90;100.00
20620;BME280;10469;42.720;23.252;2023-01-25T00:42:09;95999.72;;;0.77;100.00
20620;BME280;10469;42.720;23.252;2023-01-25T00:44:35;96017.09;;;0.97;100.00
20620;BME280;10469;42.720;23.252;2023-01-25T00:47:00;96013.78;;;0.95;100.00
20620;BME280;10469;42.720;23.252;2023-01-25T00:49:27;96009.19;;;0.97;100.00
20620;BME280;10469;42.720;23.252;2023-01-25T00:51:55;96007.75;;;1.03;100.00
20620;BME280;10469;42.720;23.252;2023-01-25T00:54:20;95989.13;;;1.04;100.00
20620;BME280;10469;42.720;23.252;2023-01-25T00:56:47;96010.03;;;1.15;100.00
20620;BME280;10469;42.720;23.252;2023-01-25T00:59:13;96007.66;;;1.12;100.00
20620;BME280;10469;42.720;23.252;2023-01-25T01:01:40;96012.44;;;1.09;100.00
20620;BME280;10469;42.720;23.252;2023-01-25T01:04:06;96020.94;;;1.03;100.00
20620;BME280;10469;42.720;23.252;2023-01-25T01:06:34;95993.63;;;0.94;100.00
20620;BME280;10469;42.720;23.252;2023-01-25T01:09:00;96008.13;;;1.08;100.00
20620;BME280;10469;42.720;23.252;2023-01-25T01:11:25;96004.72;;;0.97;100.00
20620;BME280;10469;42.720;23.252;2023-01-25T01:13:51;95995.28;;;0.95;100.00
20620;BME280;10469;42.720;23.252;2023-01-25T01:16:16;96010.84;;;0.98;100.00
20620;BME280;10469;42.720;23.252;2023-01-25T01:18:44;96002.16;;;0.88;100.00
20620;BME280;10469;42.720;23.252;2023-01-25T01:21:12;96004.28;;;1.02;100.00
20620;BME280;10469;42.720;23.252;2023-01-25T01:23:38;95996.59;;;0.91;100.00
20620;BME280;10469;42.720;23.252;2023-01-25T01:26:06;95999.75;;;0.94;100.00
20620;BME280;10469;42.720;23.252;2023-01-25T01:28:34;95990.78;;;1.05;100.00
20620;BME280;10469;42.720;23.252;2023-01-25T01:33:26;95986.69;;;0.93;100.00
20620;BME280;10469;42.720;23.252;2023-01-25T01:35:51;95986.41;;;0.96;100.00
20620;BME280;10469;42.720;23.252;2023-01-25T01:38:17;95982.16;;;1.03;100.00
20620;BME280;10469;42.720;23.252;2023-01-25T01:40:46;95977.41;;;0.89;100.00
20620;BME280;10469;42.720;23.252;2023-01-25T01:43:20;95984.97;;;1.02;100.00
20620;BME280;10469;42.720;23.252;2023-01-25T01:53:29;95985.72;;;1.12;100.00
20620;BME280;10469;42.720;23.252;2023-01-25T01:55:59;95967.84;;;0.88;100.00
20620;BME280;10469;42.720;23.252;2023-01-25T01:58:27;95987.75;;;0.82;100.00
20620;BME280;10469;42.720;23.252;2023-01-25T02:00:53;95981.41;;;0.93;100.00
20620;BME280;10469;42.720;23.252;2023-01-25T02:03:19;95983.38;;;0.91;100.00
20620;BME280;10469;42.720;23.252;2023-01-25T02:05:56;95985.78;;;1.02;100.00
20620;BME280;10469;42.720;23.252;2023-01-25T02:08:27;95982.41;;;0.92;100.00
20620;BME280;10469;42.720;23.252;2023-01-25T02:10:54;95991.22;;;0.83;100.00
20620;BME280;10469;42.720;23.252;2023-01-25T02:13:20;95992.59;;;0.87;100.00
20620;BME280;10469;42.720;23.252;2023-01-25T02:15:50;95970.75;;;0.67;100.00
20620;BME280;10469;42.720;23.252;2023-01-25T02:18:18;95990.22;;;0.66;100.00
20620;BME280;10469;42.720;23.252;2023-01-25T02:20:45;95988.16;;;0.78;100.00
20620;BME280;10469;42.720;23.252;2023-01-25T02:23:42;95985.16;;;0.72;100.00
20620;BME280;10469;42.720;23.252;2023-01-25T02:26:12;95977.59;;;0.78;100.00
20620;BME280;10469;42.720;23.252;2023-01-25T02:28:46;95989.59;;;0.72;100.00
20620;BME280;10469;42.720;23.252;2023-01-25T02:31:13;95974.06;;;0.69;100.00
20620;BME280;10469;42.720;23.252;2023-01-25T02:33:39;95985.13;;;0.82;100.00
20620;BME280;10469;42.720;23.252;2023-01-25T02:38:42;95985.59;;;0.68;100.00
20620;BME280;10469;42.720;23.252;2023-01-25T02:41:14;95967.94;;;0.68;100.00
20620;BME280;10469;42.720;23.252;2023-01-25T02:43:41;95971.34;;;0.61;100.00
20620;BME280;10469;42.720;23.252;2023-01-25T02:46:31;95961.38;;;0.72;100.00
20620;BME280;10469;42.720;23.252;2023-01-25T02:48:58;95974.13;;;0.59;100.00
20620;BME280;10469;42.720;23.252;2023-01-25T02:51:26;95969.19;;;0.74;100.00
20620;BME280;10469;42.720;23.252;2023-01-25T02:53:52;95973.44;;;0.57;100.00
20620;BME280;10469;42.720;23.252;2023-01-25T02:56:18;95974.38;;;0.66;100.00
20620;BME280;10469;42.720;23.252;2023-01-25T02:58:44;95976.19;;;0.65;100.00
20620;BME280;10469;42.720;23.252;2023-01-25T03:01:11;95975.50;;;0.81;100.00
20620;BME280;10469;42.720;23.252;2023-01-25T03:03:37;95976.13;;;0.93;100.00
20620;BME280;10469;42.720;23.252;2023-01-25T03:06:05;95958.16;;;0.79;100.00
20620;BME280;10469;42.720;23.252;2023-01-25T03:08:32;95977.69;;;0.86;100.00
20620;BME280;10469;42.720;23.252;2023-01-25T03:10:58;95951.53;;;0.74;100.00
20620;BME280;10469;42.720;23.252;2023-01-25T03:13:25;95967.81;;;0.70;100.00
20620;BME280;10469;42.720;23.252;2023-01-25T03:15:52;95973.75;;;0.72;100.00
20620;BME280;10469;42.720;23.252;2023-01-25T03:18:22;95966.22;;;0.95;100.00
20620;BME280;10469;42.720;23.252;2023-01-25T03:20:48;95971.91;;;0.82;100.00
20620;BME280;10469;42.720;23.252;2023-01-25T03:23:13;95977.09;;;0.74;100.00
20620;BME280;10469;42.720;23.252;2023-01-25T03:25:39;95974.47;;;0.74;100.00
20620;BME280;10469;42.720;23.252;2023-01-25T03:28:04;95971.38;;;0.79;100.00
20620;BME280;10469;42.720;23.252;2023-01-25T03:30:30;95969.84;;;0.76;100.00
20620;BME280;10469;42.720;23.252;2023-01-25T03:32:55;95972.50;;;0.94;100.00
20620;BME280;10469;42.720;23.252;2023-01-25T03:35:21;95972.50;;;0.94;100.00
20620;BME280;10469;42.720;23.252;2023-01-25T03:37:46;95973.41;;;0.85;100.00
20620;BME280;10469;42.720;23.252;2023-01-25T03:40:12;95970.75;;;0.85;100.00
20620;BME280;10469;42.720;23.252;2023-01-25T03:42:38;95971.91;;;1.00;100.00
20620;BME280;10469;42.720;23.252;2023-01-25T03:45:04;95969.41;;;0.81;100.00
20620;BME280;10469;42.720;23.252;2023-01-25T03:47:30;95968.28;;;0.83;100.00
20620;BME280;10469;42.720;23.252;2023-01-25T03:49:55;95971.50;;;0.95;100.00
20620;BME280;10469;42.720;23.252;2023-01-25T03:52:37;95964.50;;;0.86;100.00
20620;BME280;10469;42.720;23.252;2023-01-25T03:55:06;95965.09;;;0.80;100.00
20620;BME280;10469;42.720;23.252;2023-01-25T03:57:32;95951.75;;;0.81;100.00
20620;BME280;10469;42.720;23.252;2023-01-25T03:59:57;95955.28;;;0.90;100.00
20620;BME280;10469;42.720;23.252;2023-01-25T04:02:23;95962.00;;;0.84;100.00
20620;BME280;10469;42.720;23.252;2023-01-25T04:04:48;95954.38;;;0.81;100.00
20620;BME280;10469;42.720;23.252;2023-01-25T04:07:14;95942.41;;;0.87;100.00
20620;BME280;10469;42.720;23.252;2023-01-25T04:09:39;95954.00;;;0.94;100.00
20620;BME280;10469;42.720;23.252;2023-01-25T04:12:05;95944.66;;;0.82;100.00
20620;BME280;10469;42.720;23.252;2023-01-25T04:14:31;95946.09;;;0.76;100.00
20620;BME280;10469;42.720;23.252;2023-01-25T04:16:56;95946.84;;;0.86;100.00
20620;BME280;10469;42.720;23.252;2023-01-25T04:19:22;95958.09;;;0.88;100.00
20620;BME280;10469;42.720;23.252;2023-01-25T04:21:47;95956.06;;;1.00;100.00
20620;BME280;10469;42.720;23.252;2023-01-25T04:24:13;95949.97;;;0.99;100.00
20620;BME280;10469;42.720;23.252;2023-01-25T04:26:39;95946.41;;;0.91;100.00
20620;BME280;10469;42.720;23.252;2023-01-25T04:29:05;95937.78;;;0.89;100.00
20620;BME280;10469;42.720;23.252;2023-01-25T04:31:31;95951.63;;;1.00;100.00
20620;BME280;10469;42.720;23.252;2023-01-25T04:33:56;95939.16;;;0.75;100.00
20620;BME280;10469;42.720;23.252;2023-01-25T04:36:22;95947.81;;;0.85;100.00
20620;BME280;10469;42.720;23.252;2023-01-25T04:38:47;95961.56;;;1.07;100.00
20620;BME280;10469;42.720;23.252;2023-01-25T04:41:13;95965.94;;;1.16;100.00
20620;BME280;10469;42.720;23.252;2023-01-25T04:43:38;95968.28;;;1.19;100.00
20620;BME280;10469;42.720;23.252;2023-01-25T04:46:04;95966.94;;;0.97;100.00
20620;BME280;10469;42.720;23.252;2023-01-25T04:48:30;95966.72;;;1.08;100.00
20620;BME280;10469;42.720;23.252;2023-01-25T04:50:56;95964.19;;;1.07;100.00
20620;BME280;10469;42.720;23.252;2023-01-25T04:53:22;95959.38;;;1.02;100.00
20620;BME280;10469;42.720;23.252;2023-01-25T04:55:48;95956.81;;;0.92;100.00
20620;BME280;10469;42.720;23.252;2023-01-25T04:58:13;95965.13;;;0.97;100.00
20620;BME280;10469;42.720;23.252;2023-01-25T05:00:39;95960.91;;;0.87;100.00
20620;BME280;10469;42.720;23.252;2023-01-25T05:03:05;95965.09;;;0.80;100.00
20620;BME280;10469;42.720;23.252;2023-01-25T05:05:30;95964.91;;;1.09;100.00
20620;BME280;10469;42.720;23.252;2023-01-25T05:07:56;95966.38;;;1.11;100.00
20620;BME280;10469;42.720;23.252;2023-01-25T05:10:22;95956.66;;;0.94;100.00
20620;BME280;10469;42.720;23.252;2023-01-25T05:12:47;95964.56;;;0.94;100.00
20620;BME280;10469;42.720;23.252;2023-01-25T05:15:13;95965.84;;;0.90;100.00
20620;BME280;10469;42.720;23.252;2023-01-25T05:17:39;95960.06;;;1.04;100.00
20620;BME280;10469;42.720;23.252;2023-01-25T05:20:05;95961.72;;;0.87;100.00
20620;BME280;10469;42.720;23.252;2023-01-25T05:22:30;95959.09;;;0.87;100.00
20620;BME280;10469;42.720;23.252;2023-01-25T05:24:56;95933.03;;;0.74;100.00
20620;BME280;10469;42.720;23.252;2023-01-25T05:27:23;95941.56;;;0.86;100.00
20620;BME280;10469;42.720;23.252;2023-01-25T05:29:49;95949.19;;;0.89;100.00
20620;BME280;10469;42.720;23.252;2023-01-25T05:32:21;95956.00;;;0.92;100.00
20620;BME280;10469;42.720;23.252;2023-01-25T05:34:47;95933.03;;;0.92;100.00
20620;BME280;10469;42.720;23.252;2023-01-25T05:37:15;95955.66;;;0.95;100.00
20620;BME280;10469;42.720;23.252;2023-01-25T05:39:44;95958.31;;;0.95;100.00
20620;BME280;10469;42.720;23.252;2023-01-25T05:42:12;95944.38;;;1.46;100.00
20620;BME280;10469;42.720;23.252;2023-01-25T05:44:38;95944.47;;;1.37;100.00
20620;BME280;10469;42.720;23.252;2023-01-25T05:47:04;95965.28;;;1.84;100.00
20620;BME280;10469;42.720;23.252;2023-01-25T05:49:29;95947.41;;;1.34;100.00
20620;BME280;10469;42.720;23.252;2023-01-25T05:51:55;95959.34;;;1.56;100.00
20620;BME280;10469;42.720;23.252;2023-01-25T05:54:20;95961.34;;;1.62;100.00
20620;BME280;10469;42.720;23.252;2023-01-25T05:56:49;95963.00;;;1.63;100.00
20620;BME280;10469;42.720;23.252;2023-01-25T05:59:15;95963.63;;;1.57;100.00
20620;BME280;10469;42.720;23.252;2023-01-25T06:01:42;95959.03;;;1.41;100.00
20620;BME280;10469;42.720;23.252;2023-01-25T06:04:12;95967.97;;;1.40;100.00
20620;BME280;10469;42.720;23.252;2023-01-25T06:06:38;95952.81;;;1.06;100.00
20620;BME280;10469;42.720;23.252;2023-01-25T06:09:04;95954.84;;;1.12;100.00
20620;BME280;10469;42.720;23.252;2023-01-25T06:11:29;95950.13;;;1.42;100.00
20620;BME280;10469;42.720;23.252;2023-01-25T06:13:55;95956.09;;;1.44;100.00
20620;BME280;10469;42.720;23.252;2023-01-25T06:16:20;95970.78;;;1.03;100.00
20620;BME280;10469;42.720;23.252;2023-01-25T06:18:46;95974.16;;;0.95;100.00
20620;BME280;10469;42.720;23.252;2023-01-25T06:21:12;95968.94;;;1.03;100.00
20620;BME280;10469;42.720;23.252;2023-01-25T06:23:38;95973.41;;;1.03;100.00
20620;BME280;10469;42.720;23.252;2023-01-25T06:26:06;95972.28;;;1.05;100.00
20620;BME280;10469;42.720;23.252;2023-01-25T06:28:34;95967.09;;;1.13;100.00
20620;BME280;10469;42.720;23.252;2023-01-25T06:31:08;95981.25;;;1.12;100.00
20620;BME280;10469;42.720;23.252;2023-01-25T06:33:34;95962.09;;;1.10;100.00
20620;BME280;10469;42.720;23.252;2023-01-25T06:36:02;95960.91;;;1.05;100.00
20620;BME280;10469;42.720;23.252;2023-01-25T06:38:29;95962.94;;;0.93;100.00
20620;BME280;10469;42.720;23.252;2023-01-25T06:41:01;95969.41;;;0.98;100.00
20620;BME280;10469;42.720;23.252;2023-01-25T06:43:27;95964.44;;;0.95;100.00
20620;BME280;10469;42.720;23.252;2023-01-25T06:45:56;95970.22;;;0.99;100.00
20620;BME280;10469;42.720;23.252;2023-01-25T06:48:22;95968.13;;;1.03;100.00
20620;BME280;10469;42.720;23.252;2023-01-25T06:50:53;95968.81;;;1.05;100.00
20620;BME280;10469;42.720;23.252;2023-01-25T06:53:19;95958.75;;;0.90;100.00
20620;BME280;10469;42.720;23.252;2023-01-25T06:55:44;95968.66;;;1.06;100.00
20620;BME280;10469;42.720;23.252;2023-01-25T06:58:10;95970.19;;;1.09;100.00
20620;BME280;10469;42.720;23.252;2023-01-25T07:00:35;95964.06;;;1.08;100.00
20620;BME280;10469;42.720;23.252;2023-01-25T07:03:01;95963.75;;;1.11;100.00
20620;BME280;10469;42.720;23.252;2023-01-25T07:05:26;95973.63;;;1.27;100.00
20620;BME280;10469;42.720;23.252;2023-01-25T07:07:52;95974.16;;;1.31;100.00
20620;BME280;10469;42.720;23.252;2023-01-25T07:10:17;95964.00;;;1.18;100.00
20620;BME280;10469;42.720;23.252;2023-01-25T07:12:43;95960.75;;;1.06;100.00
20620;BME280;10469;42.720;23.252;2023-01-25T07:15:08;95959.91;;;1.06;100.00
20620;BME280;10469;42.720;23.252;2023-01-25T07:17:34;95964.38;;;1.05;100.00
20620;BME280;10469;42.720;23.252;2023-01-25T07:20:00;95970.63;;;1.22;100.00
20620;BME280;10469;42.720;23.252;2023-01-25T07:22:25;95962.97;;;1.37;100.00
20620;BME280;10469;42.720;23.252;2023-01-25T07:24:51;95959.75;;;1.07;100.00
20620;BME280;10469;42.720;23.252;2023-01-25T07:27:18;95970.16;;;1.27;100.00
20620;BME280;10469;42.720;23.252;2023-01-25T07:29:43;95969.56;;;1.33;100.00
20620;BME280;10469;42.720;23.252;2023-01-25T07:32:11;95983.00;;;1.39;100.00
20620;BME280;10469;42.720;23.252;2023-01-25T07:34:38;95978.22;;;1.61;100.00
20620;BME280;10469;42.720;23.252;2023-01-25T07:37:04;95979.19;;;1.42;100.00
20620;BME280;10469;42.720;23.252;2023-01-25T07:39:29;95980.38;;;1.65;100.00
20620;BME280;10469;42.720;23.252;2023-01-25T07:41:55;95982.22;;;1.65;100.00
20620;BME280;10469;42.720;23.252;2023-01-25T07:44:20;95987.03;;;1.69;100.00
20620;BME280;10469;42.720;23.252;2023-01-25T07:46:46;95984.41;;;1.52;100.00
20620;BME280;10469;42.720;23.252;2023-01-25T07:49:12;95987.47;;;1.39;100.00
20620;BME280;10469;42.720;23.252;2023-01-25T07:51:37;95988.06;;;1.76;100.00
20620;BME280;10469;42.720;23.252;2023-01-25T07:54:04;95976.81;;;1.74;100.00
20620;BME280;10469;42.720;23.252;2023-01-25T07:56:32;95989.56;;;1.79;100.00
20620;BME280;10469;42.720;23.252;2023-01-25T07:58:59;95979.41;;;1.66;100.00
20620;BME280;10469;42.720;23.252;2023-01-25T08:01:27;95981.84;;;1.86;100.00
20620;BME280;10469;42.720;23.252;2023-01-25T08:03:54;95983.22;;;1.72;100.00
20620;BME280;10469;42.720;23.252;2023-01-25T08:06:28;95982.75;;;1.76;100.00
20620;BME280;10469;42.720;23.252;2023-01-25T08:09:14;95988.44;;;1.82;100.00
20620;BME280;10469;42.720;23.252;2023-01-25T08:11:42;95991.69;;;1.75;100.00
20620;BME280;10469;42.720;23.252;2023-01-25T08:14:07;95983.63;;;1.59;100.00
20620;BME280;10469;42.720;23.252;2023-01-25T08:16:33;95979.22;;;1.68;100.00
20620;BME280;10469;42.720;23.252;2023-01-25T08:19:00;95978.34;;;1.85;100.00
20620;BME280;10469;42.720;23.252;2023-01-25T08:21:26;95977.00;;;1.55;100.00
20620;BME280;10469;42.720;23.252;2023-01-25T08:23:57;95967.63;;;1.61;100.00
20620;BME280;10469;42.720;23.252;2023-01-25T08:26:23;95972.53;;;1.73;100.00
20620;BME280;10469;42.720;23.252;2023-01-25T08:28:48;95977.06;;;1.63;100.00
20620;BME280;10469;42.720;23.252;2023-01-25T08:31:17;95967.53;;;1.70;100.00
20620;BME280;10469;42.720;23.252;2023-01-25T08:33:44;95978.00;;;1.80;100.00
20620;BME280;10469;42.720;23.252;2023-01-25T08:36:11;95976.69;;;1.58;100.00
20620;BME280;10469;42.720;23.252;2023-01-25T08:38:37;95972.88;;;1.35;100.00
20620;BME280;10469;42.720;23.252;2023-01-25T08:41:08;95984.03;;;1.46;100.00
20620;BME280;10469;42.720;23.252;2023-01-25T08:43:35;95975.81;;;1.49;100.00
20620;BME280;10469;42.720;23.252;2023-01-25T08:46:00;95945.47;;;1.36;100.00
20620;BME280;10469;42.720;23.252;2023-01-25T08:48:26;95970.41;;;1.59;100.00
20620;BME280;10469;42.720;23.252;2023-01-25T08:50:52;95934.91;;;1.62;100.00
20620;BME280;10469;42.720;23.252;2023-01-25T08:53:18;95960.00;;;1.58;100.00
20620;BME280;10469;42.720;23.252;2023-01-25T08:55:43;95965.78;;;1.79;100.00
20620;BME280;10469;42.720;23.252;2023-01-25T08:58:10;95963.88;;;1.71;100.00
20620;BME280;10469;42.720;23.252;2023-01-25T09:00:39;95967.00;;;1.67;100.00
20620;BME280;10469;42.720;23.252;2023-01-25T09:03:06;95970.63;;;1.66;100.00
20620;BME280;10469;42.720;23.252;2023-01-25T09:05:38;95973.38;;;1.56;100.00
20620;BME280;10469;42.720;23.252;2023-01-25T09:08:06;95965.81;;;1.61;100.00
20620;BME280;10469;42.720;23.252;2023-01-25T09:10:31;95975.28;;;1.72;100.00
20620;BME280;10469;42.720;23.252;2023-01-25T09:12:57;95970.84;;;1.72;100.00
20620;BME280;10469;42.720;23.252;2023-01-25T09:15:23;95961.88;;;1.65;100.00
20620;BME280;10469;42.720;23.252;2023-01-25T09:17:53;95969.94;;;1.64;100.00
20620;BME280;10469;42.720;23.252;2023-01-25T09:20:19;95968.00;;;1.66;100.00
20620;BME280;10469;42.720;23.252;2023-01-25T09:22:45;95962.72;;;1.92;100.00
20620;BME280;10469;42.720;23.252;2023-01-25T09:25:10;95945.06;;;1.74;100.00
20620;BME280;10469;42.720;23.252;2023-01-25T09:27:36;95932.22;;;1.80;100.00
20620;BME280;10469;42.720;23.252;2023-01-25T09:30:03;95941.78;;;1.81;100.00
20620;BME280;10469;42.720;23.252;2023-01-25T09:32:30;95947.19;;;1.97;100.00
20620;BME280;10469;42.720;23.252;2023-01-25T09:34:55;95938.59;;;1.95;100.00
20620;BME280;10469;42.720;23.252;2023-01-25T09:37:21;95951.13;;;1.93;100.00
20620;BME280;10469;42.720;23.252;2023-01-25T09:39:47;95936.13;;;2.01;100.00
20620;BME280;10469;42.720;23.252;2023-01-25T09:44:50;95929.88;;;2.11;100.00
20620;BME280;10469;42.720;23.252;2023-01-25T09:50:34;95918.63;;;2.00;100.00
20620;BME280;10469;42.720;23.252;2023-01-25T09:53:22;95911.75;;;1.90;100.00
20620;BME280;10469;42.720;23.252;2023-01-25T09:55:56;95911.56;;;1.83;100.00
20620;BME280;10469;42.720;23.252;2023-01-25T09:58:36;95913.72;;;1.54;100.00
20620;BME280;10469;42.720;23.252;2023-01-25T10:01:40;95907.72;;;1.69;100.00
20620;BME280;10469;42.720;23.252;2023-01-25T10:04:11;95890.25;;;1.85;100.00
20620;BME280;10469;42.720;23.252;2023-01-25T10:06:42;95879.00;;;1.83;100.00
20620;BME280;10469;42.720;23.252;2023-01-25T10:09:23;95882.47;;;2.17;100.00
20620;BME280;10469;42.720;23.252;2023-01-25T10:11:52;95868.22;;;2.10;100.00
20620;BME280;10469;42.720;23.252;2023-01-25T10:14:19;95865.53;;;2.02;100.00
20620;BME280;10469;42.720;23.252;2023-01-25T10:19:19;95872.28;;;2.39;100.00
20620;BME280;10469;42.720;23.252;2023-01-25T10:21:56;95872.09;;;2.32;100.00
20620;BME280;10469;42.720;23.252;2023-01-25T10:30:38;95857.41;;;2.54;100.00
20620;BME280;10469;42.720;23.252;2023-01-25T10:33:17;95857.13;;;2.73;100.00
20620;BME280;10469;42.720;23.252;2023-01-25T10:35:46;95850.97;;;2.57;100.00
20620;BME280;10469;42.720;23.252;2023-01-25T10:38:20;95845.69;;;2.89;100.00
20620;BME280;10469;42.720;23.252;2023-01-25T10:40:59;95835.13;;;2.81;100.00
20620;BME280;10469;42.720;23.252;2023-01-25T10:43:27;95823.34;;;2.92;100.00
20620;BME280;10469;42.720;23.252;2023-01-25T10:45:52;95836.44;;;2.77;100.00
20620;BME280;10469;42.720;23.252;2023-01-25T10:48:33;95821.69;;;2.91;100.00
20620;BME280;10469;42.720;23.252;2023-01-25T10:50:59;95827.63;;;3.17;100.00
20620;BME280;10469;42.720;23.252;2023-01-25T11:01:07;95813.06;;;3.05;100.00
20620;BME280;10469;42.720;23.252;2023-01-25T11:06:00;95790.84;;;3.31;100.00
20620;BME280;10469;42.720;23.252;2023-01-25T11:10:55;95804.09;;;3.22;100.00
20620;BME280;10469;42.720;23.252;2023-01-25T11:13:22;95807.94;;;3.12;100.00
20620;BME280;10469;42.720;23.252;2023-01-25T11:18:32;95787.72;;;3.74;100.00
20620;BME280;10469;42.720;23.252;2023-01-25T11:21:14;95776.06;;;3.84;100.00
20620;BME280;10469;42.720;23.252;2023-01-25T11:24:16;95789.09;;;3.62;100.00
20620;BME280;10469;42.720;23.252;2023-01-25T11:26:42;95781.38;;;3.84;100.00
20620;BME280;10469;42.720;23.252;2023-01-25T11:29:20;95779.00;;;3.49;100.00
20620;BME280;10469;42.720;23.252;2023-01-25T11:31:52;95781.50;;;3.51;100.00
20620;BME280;10469;42.720;23.252;2023-01-25T11:34:21;95784.25;;;3.10;100.00
20620;BME280;10469;42.720;23.252;2023-01-25T11:57:16;95742.03;;;3.00;100.00
20620;BME280;10469;42.720;23.252;2023-01-25T12:29:03;95711.03;;;3.17;100.00
20620;BME280;10469;42.720;23.252;2023-01-25T12:31:39;95697.31;;;3.06;100.00
20620;BME280;10469;42.720;23.252;2023-01-25T12:34:11;95685.06;;;2.96;100.00
20620;BME280;10469;42.720;23.252;2023-01-25T12:36:44;95682.44;;;2.96;100.00
20620;BME280;10469;42.720;23.252;2023-01-25T12:39:27;95687.72;;;2.96;100.00
20620;BME280;10469;42.720;23.252;2023-01-25T12:44:41;95703.13;;;2.93;100.00
20620;BME280;10469;42.720;23.252;2023-01-25T12:47:27;95693.16;;;3.11;100.00
20620;BME280;10469;42.720;23.252;2023-01-25T12:50:05;95685.25;;;3.03;100.00
20620;BME280;10469;42.720;23.252;2023-01-25T12:52:51;95685.50;;;3.24;100.00
20620;BME280;10469;42.720;23.252;2023-01-25T12:55:18;95670.69;;;2.99;100.00
20620;BME280;10469;42.720;23.252;2023-01-25T12:58:05;95685.38;;;3.01;100.00
20620;BME280;10469;42.720;23.252;2023-01-25T13:00:46;95684.38;;;3.11;100.00
20620;BME280;10469;42.720;23.252;2023-01-25T13:03:23;95677.63;;;3.00;100.00
20620;BME280;10469;42.720;23.252;2023-01-25T13:11:41;95672.94;;;3.10;100.00
20620;BME280;10469;42.720;23.252;2023-01-25T13:14:29;95668.88;;;2.91;100.00
20620;BME280;10469;42.720;23.252;2023-01-25T13:17:30;95669.19;;;2.88;100.00
20620;BME280;10469;42.720;23.252;2023-01-25T13:19:57;95664.78;;;2.64;100.00
20620;BME280;10469;42.720;23.252;2023-01-25T13:25:19;95661.97;;;2.74;100.00
20620;BME280;10469;42.720;23.252;2023-01-25T13:27:45;95645.91;;;2.67;100.00
20620;BME280;10469;42.720;23.252;2023-01-25T13:30:31;95649.22;;;2.61;100.00
20620;BME280;10469;42.720;23.252;2023-01-25T13:33:04;95656.78;;;2.81;100.00
20620;BME280;10469;42.720;23.252;2023-01-25T13:35:41;95650.88;;;2.70;100.00
20620;BME280;10469;42.720;23.252;2023-01-25T13:40:37;95669.09;;;2.65;100.00
20620;BME280;10469;42.720;23.252;2023-01-25T13:43:20;95667.19;;;2.98;100.00
20620;BME280;10469;42.720;23.252;2023-01-25T13:45:49;95664.56;;;2.98;100.00
20620;BME280;10469;42.720;23.252;2023-01-25T13:51:02;95683.97;;;2.74;100.00
20620;BME280;10469;42.720;23.252;2023-01-25T13:53:28;95665.31;;;2.60;100.00
20620;BME280;10469;42.720;23.252;2023-01-25T13:55:58;95671.41;;;2.60;100.00
20620;BME280;10469;42.720;23.252;2023-01-25T13:58:32;95665.94;;;2.54;100.00
20620;BME280;10469;42.720;23.252;2023-01-25T14:01:00;95687.00;;;2.55;100.00
20620;BME280;10469;42.720;23.252;2023-01-25T14:06:25;95673.06;;;2.45;100.00
20620;BME280;10469;42.720;23.252;2023-01-25T14:08:54;95685.34;;;2.30;100.00
20620;BME280;10469;42.720;23.252;2023-01-25T14:11:25;95687.31;;;2.28;100.00
20620;BME280;10469;42.720;23.252;2023-01-25T14:13:56;95685.34;;;2.21;100.00
20620;BME280;10469;42.720;23.252;2023-01-25T14:16:24;95684.16;;;2.40;100.00
20620;BME280;10469;42.720;23.252;2023-01-25T14:18:51;95688.63;;;2.32;100.00
20620;BME280;10469;42.720;23.252;2023-01-25T14:21:19;95685.66;;;2.26;100.00
20620;BME280;10469;42.720;23.252;2023-01-25T14:23:46;95670.09;;;2.15;100.00
20620;BME280;10469;42.720;23.252;2023-01-25T14:26:24;95677.91;;;2.25;100.00
20620;BME280;10469;42.720;23.252;2023-01-25T14:28:56;95663.16;;;1.98;100.00
20620;BME280;10469;42.720;23.252;2023-01-25T14:31:25;95658.38;;;2.10;100.00
20620;BME280;10469;42.720;23.252;2023-01-25T14:33:52;95663.66;;;2.26;100.00
20620;BME280;10469;42.720;23.252;2023-01-25T14:36:27;95652.91;;;2.19;100.00
20620;BME280;10469;42.720;23.252;2023-01-25T14:38:54;95659.88;;;2.12;100.00
20620;BME280;10469;42.720;23.252;2023-01-25T14:41:37;95650.59;;;2.00;100.00
20620;BME280;10469;42.720;23.252;2023-01-25T14:44:12;95651.75;;;2.06;100.00
20620;BME280;10469;42.720;23.252;2023-01-25T14:46:39;95652.25;;;2.09;100.00
20620;BME280;10469;42.720;23.252;2023-01-25T14:49:19;95646.94;;;1.93;100.00
20620;BME280;10469;42.720;23.252;2023-01-25T14:54:30;95644.25;;;1.68;100.00
20620;BME280;10469;42.720;23.252;2023-01-25T14:57:02;95659.31;;;1.76;100.00
20620;BME280;10469;42.720;23.252;2023-01-25T14:59:44;95652.19;;;1.68;100.00
20620;BME280;10469;42.720;23.252;2023-01-25T15:05:38;95649.66;;;1.42;100.00